Time;durP1;ratioP1;P1;durP2;ratioP2;P2;SDS_P1;SDS_P2;PMS_P1;PMS_P2;Temp;Humidity;BMP_temperature;BMP_pressure;BME280_temperature;BME280_humidity;BME280_pressure;Samples;Min_cycle;Max_cycle;Signal;HPM_P1;HPM_P2
2022/05/03 00:00:35;;;;;;;13.67;9.47;;;;;;;;;;4402845;32;20239;-56
2022/05/03 00:03:22;;;;;;;11.47;9.37;;;;;;;;;;4402782;32;20566;-55
2022/05/03 00:06:06;;;;;;;14.60;10.00;;;;;;;;;;4405139;32;20600;-56
2022/05/03 00:08:53;;;;;;;15.47;11.40;;;;;;;;;;4418174;32;20225;-56
2022/05/03 00:11:28;;;;;;;17.17;11.63;;;;;;;;;;4417624;32;20270;-55
2022/05/03 00:14:09;;;;;;;15.47;11.60;;;;;;;;;;4409307;32;20291;-56
2022/05/03 00:16:35;;;;;;;15.07;11.67;;;;;;;;;;4402471;32;20232;-55
2022/05/03 00:19:05;;;;;;;12.53;10.00;;;;;;;;;;4402372;32;20257;-56
2022/05/03 00:21:33;;;;;;;9.50;8.60;;;;;;;;;;4403360;32;20284;-57
2022/05/03 00:23:59;;;;;;;17.43;10.37;;;;;;;;;;4405204;32;20217;-56
2022/05/03 00:26:27;;;;;;;12.83;10.07;;;;;;;;;;4405156;32;20300;-56
2022/05/03 00:28:54;;;;;;;11.20;10.00;;;;;;;;;;4391441;32;20652;-55
2022/05/03 00:31:20;;;;;;;11.77;10.00;;;;;;;;;;4404956;32;20209;-56
2022/05/03 00:33:47;;;;;;;14.17;11.00;;;;;;;;;;4405230;32;20252;-56
2022/05/03 00:36:12;;;;;;;15.63;10.47;;;;;;;;;;4376708;32;20237;-55
2022/05/03 00:38:38;;;;;;;12.27;10.97;;;;;;;;;;4399467;32;20238;-56
2022/05/03 00:41:08;;;;;;;15.30;9.97;;;;;;;;;;4404903;32;20332;-58
2022/05/03 00:43:48;;;;;;;13.57;9.57;;;;;;;;;;4405307;32;20753;-56
2022/05/03 00:46:16;;;;;;;11.63;9.87;;;;;;;;;;4405322;32;20201;-56
2022/05/03 00:49:22;;;;;;;12.30;10.33;;;;;;;;;;4405533;32;20612;-55
2022/05/03 00:52:16;;;;;;;11.23;9.67;;;;;;;;;;4405008;32;20270;-56
2022/05/03 00:55:03;;;;;;;12.03;10.73;;;;;;;;;;4365745;32;20226;-55
2022/05/03 00:57:34;;;;;;;15.23;10.87;;;;;;;;;;4389963;32;20249;-56
2022/05/03 01:00:08;;;;;;;12.43;11.13;;;;;;;;;;4404940;32;20226;-56
2022/05/03 01:02:48;;;;;;;14.70;11.80;;;;;;;;;;4408597;32;20257;-56
2022/05/03 01:05:19;;;;;;;12.73;11.13;;;;;;;;;;4404990;32;20193;-56
2022/05/03 01:07:57;;;;;;;13.00;10.73;;;;;;;;;;4390832;32;20752;-56
2022/05/03 01:10:38;;;;;;;15.50;11.23;;;;;;;;;;4404925;32;20605;-56
2022/05/03 01:13:04;;;;;;;12.63;10.50;;;;;;;;;;4407741;32;20230;-56
2022/05/03 01:15:46;;;;;;;13.23;10.87;;;;;;;;;;4408820;32;20363;-56
2022/05/03 01:18:30;;;;;;;13.00;11.43;;;;;;;;;;4404562;32;20293;-57
2022/05/03 01:20:55;;;;;;;14.27;11.50;;;;;;;;;;4404608;32;20612;-57
2022/05/03 01:23:48;;;;;;;11.93;9.83;;;;;;;;;;4404043;32;20233;-56
2022/05/03 01:26:27;;;;;;;14.20;11.80;;;;;;;;;;4404801;32;20209;-56
2022/05/03 01:29:22;;;;;;;14.10;11.37;;;;;;;;;;4404532;32;20608;-57
2022/05/03 01:31:53;;;;;;;13.47;11.73;;;;;;;;;;4394747;32;20248;-56
2022/05/03 01:34:19;;;;;;;14.90;11.83;;;;;;;;;;4404788;32;20206;-56
2022/05/03 01:37:06;;;;;;;13.40;11.83;;;;;;;;;;4404516;32;20353;-56
2022/05/03 01:40:03;;;;;;;14.53;11.80;;;;;;;;;;4404039;32;20206;-57
2022/05/03 01:42:50;;;;;;;15.93;12.40;;;;;;;;;;4404344;32;20275;-56
2022/05/03 01:45:50;;;;;;;15.13;11.93;;;;;;;;;;4404675;32;20221;-56
2022/05/03 01:48:20;;;;;;;14.70;12.50;;;;;;;;;;4401163;32;20265;-56
2022/05/03 01:50:54;;;;;;;14.50;11.53;;;;;;;;;;4404631;32;20198;-56
2022/05/03 01:53:45;;;;;;;16.10;13.03;;;;;;;;;;4403903;32;20253;-55
2022/05/03 01:56:37;;;;;;;16.50;13.30;;;;;;;;;;4391488;32;20627;-56
2022/05/03 01:59:14;;;;;;;18.00;12.77;;;;;;;;;;4403108;32;20237;-56
2022/05/03 02:01:39;;;;;;;23.70;12.37;;;;;;;;;;4404419;32;20512;-56
2022/05/03 02:04:23;;;;;;;14.77;12.60;;;;;;;;;;4404029;32;20248;-57
2022/05/03 02:06:49;;;;;;;14.93;11.53;;;;;;;;;;4404083;32;20527;-56
2022/05/03 02:09:14;;;;;;;14.30;12.30;;;;;;;;;;4403825;32;20343;-57
2022/05/03 02:11:53;;;;;;;15.77;11.63;;;;;;;;;;4403650;32;20576;-56
2022/05/03 02:14:44;;;;;;;15.47;11.33;;;;;;;;;;4411308;32;20297;-57
2022/05/03 02:17:30;;;;;;;15.60;11.55;;;;;;;;;;4403570;32;20216;-57
2022/05/03 02:20:27;;;;;;;16.43;12.20;;;;;;;;;;4388788;32;20348;-57
2022/05/03 02:23:08;;;;;;;15.23;12.00;;;;;;;;;;4389514;32;20264;-55
2022/05/03 02:25:52;;;;;;;12.93;11.43;;;;;;;;;;4403731;32;20283;-55
2022/05/03 02:28:18;;;;;;;13.17;11.00;;;;;;;;;;4390488;32;20229;-55
2022/05/03 02:30:46;;;;;;;12.80;9.97;;;;;;;;;;4388644;32;20337;-55
2022/05/03 02:33:31;;;;;;;12.13;10.77;;;;;;;;;;4399426;32;20296;-58
2022/05/03 02:35:58;;;;;;;13.67;10.60;;;;;;;;;;4403894;32;20186;-55
2022/05/03 02:38:39;;;;;;;14.00;11.70;;;;;;;;;;4403285;32;20267;-56
2022/05/03 02:41:08;;;;;;;16.60;12.07;;;;;;;;;;4403698;32;20322;-56
2022/05/03 02:43:36;;;;;;;15.43;10.70;;;;;;;;;;4403306;32;20661;-56
2022/05/03 02:46:46;;;;;;;14.13;11.67;;;;;;;;;;4403347;32;20638;-56
2022/05/03 02:49:18;;;;;;;24.67;13.60;;;;;;;;;;4395951;32;20271;-55
2022/05/03 02:52:09;;;;;;;19.63;12.27;;;;;;;;;;4403357;32;20226;-56
2022/05/03 02:54:57;;;;;;;24.60;13.67;;;;;;;;;;4402878;32;20287;-56
2022/05/03 02:57:44;;;;;;;26.50;14.13;;;;;;;;;;4402916;32;20255;-56
2022/05/03 03:02:57;;;;;;;12.77;8.60;;;;;;;;;;4403045;32;20255;-56
2022/05/03 03:05:26;;;;;;;10.00;7.40;;;;;;;;;;4400358;32;20571;-58
2022/05/03 03:08:03;;;;;;;9.57;8.07;;;;;;;;;;4387870;32;20251;-56
2022/05/03 03:10:50;;;;;;;9.97;7.63;;;;;;;;;;4387984;32;20201;-55
2022/05/03 03:13:44;;;;;;;9.53;7.17;;;;;;;;;;4392239;32;20221;-56
2022/05/03 03:16:14;;;;;;;10.17;6.60;;;;;;;;;;4403012;32;20205;-56
2022/05/03 03:18:43;;;;;;;8.37;7.17;;;;;;;;;;4403277;32;20233;-57
2022/05/03 03:21:12;;;;;;;8.87;7.30;;;;;;;;;;4402775;32;20254;-56
2022/05/03 03:23:40;;;;;;;8.20;7.30;;;;;;;;;;4401473;32;20229;-57
2022/05/03 03:26:08;;;;;;;7.63;6.83;;;;;;;;;;4402975;32;20630;-57
2022/05/03 03:28:35;;;;;;;7.93;7.20;;;;;;;;;;4402614;32;20255;-57
2022/05/03 03:31:02;;;;;;;8.57;7.03;;;;;;;;;;4402632;32;20381;-57
2022/05/03 03:33:32;;;;;;;8.60;7.73;;;;;;;;;;4402674;32;20284;-58
2022/05/03 03:36:01;;;;;;;9.47;7.57;;;;;;;;;;4389732;32;20262;-57
2022/05/03 03:38:35;;;;;;;8.57;7.67;;;;;;;;;;4402746;32;20271;-57
2022/05/03 03:41:00;;;;;;;7.77;6.13;;;;;;;;;;4402974;32;20305;-57
2022/05/03 03:43:26;;;;;;;6.93;6.23;;;;;;;;;;4402520;32;20273;-57
2022/05/03 03:45:51;;;;;;;12.00;6.60;;;;;;;;;;4403286;32;20268;-57
2022/05/03 03:48:17;;;;;;;9.73;6.53;;;;;;;;;;4402768;32;20233;-57
2022/05/03 03:50:44;;;;;;;11.03;7.03;;;;;;;;;;4402835;32;20296;-57
2022/05/03 03:53:10;;;;;;;10.63;8.07;;;;;;;;;;4402594;32;20580;-57
2022/05/03 03:55:36;;;;;;;11.60;8.47;;;;;;;;;;4403321;32;20767;-57
2022/05/03 03:58:02;;;;;;;24.40;10.07;;;;;;;;;;4405559;32;20298;-56
2022/05/03 04:00:27;;;;;;;16.13;9.90;;;;;;;;;;4405765;32;20271;-57
2022/05/03 04:02:53;;;;;;;11.70;8.93;;;;;;;;;;4405899;32;20225;-57
2022/05/03 04:05:20;;;;;;;11.83;7.47;;;;;;;;;;4405758;32;20387;-57
2022/05/03 04:07:46;;;;;;;8.33;6.63;;;;;;;;;;4405210;32;20692;-57
2022/05/03 04:10:12;;;;;;;6.17;5.47;;;;;;;;;;4405321;32;20280;-58
2022/05/03 04:12:38;;;;;;;8.20;5.20;;;;;;;;;;4405564;32;20244;-56
2022/05/03 04:15:03;;;;;;;5.23;4.50;;;;;;;;;;4405501;32;20277;-57
2022/05/03 04:17:29;;;;;;;7.07;5.00;;;;;;;;;;4405269;32;20684;-57
2022/05/03 04:19:54;;;;;;;5.27;4.70;;;;;;;;;;4402236;32;20372;-57
2022/05/03 04:22:32;;;;;;;5.50;4.80;;;;;;;;;;4405276;32;20304;-57
2022/05/03 04:24:59;;;;;;;6.67;4.80;;;;;;;;;;4405624;32;20410;-57
2022/05/03 04:27:26;;;;;;;6.93;5.47;;;;;;;;;;4405262;32;20320;-56
2022/05/03 04:29:53;;;;;;;5.97;5.00;;;;;;;;;;4406240;32;20221;-56
2022/05/03 04:32:18;;;;;;;5.80;5.07;;;;;;;;;;4391125;32;20237;-57
2022/05/03 04:34:43;;;;;;;6.73;5.83;;;;;;;;;;4405543;32;20932;-57
2022/05/03 04:37:09;;;;;;;11.40;5.90;;;;;;;;;;4403949;32;20291;-56
2022/05/03 04:39:34;;;;;;;7.03;5.67;;;;;;;;;;4390406;32;20285;-57
2022/05/03 04:42:00;;;;;;;8.83;5.23;;;;;;;;;;4389842;32;20214;-57
2022/05/03 04:44:25;;;;;;;5.87;5.10;;;;;;;;;;4389812;32;20280;-57
2022/05/03 04:46:51;;;;;;;6.23;5.63;;;;;;;;;;4390409;32;20251;-57
2022/05/03 04:49:16;;;;;;;8.40;5.87;;;;;;;;;;4389628;32;20365;-56
2022/05/03 04:51:42;;;;;;;12.43;6.40;;;;;;;;;;4398942;32;20277;-57
2022/05/03 04:54:07;;;;;;;6.67;5.67;;;;;;;;;;4404581;32;20298;-58
2022/05/03 04:56:32;;;;;;;10.87;7.13;;;;;;;;;;4404606;32;20289;-59
2022/05/03 04:58:58;;;;;;;11.00;8.07;;;;;;;;;;4395295;32;20684;-57
2022/05/03 05:01:24;;;;;;;9.30;7.47;;;;;;;;;;4388650;32;20757;-57
2022/05/03 05:03:50;;;;;;;11.27;7.03;;;;;;;;;;4400012;32;20323;-57
2022/05/03 05:06:16;;;;;;;10.13;6.70;;;;;;;;;;4403669;32;20280;-57
2022/05/03 05:08:43;;;;;;;13.93;9.43;;;;;;;;;;4403548;32;20291;-57
2022/05/03 05:11:10;;;;;;;12.73;9.60;;;;;;;;;;4404209;32;20576;-57
2022/05/03 05:13:36;;;;;;;11.87;8.43;;;;;;;;;;4390258;32;20336;-58
2022/05/03 05:16:03;;;;;;;10.23;7.93;;;;;;;;;;4397250;32;20256;-57
2022/05/03 05:18:28;;;;;;;8.07;6.70;;;;;;;;;;4394987;32;20709;-58
2022/05/03 05:20:54;;;;;;;6.23;5.13;;;;;;;;;;4404141;32;20391;-56
2022/05/03 05:23:20;;;;;;;6.37;5.20;;;;;;;;;;4403434;32;20226;-57
2022/05/03 05:25:47;;;;;;;8.57;6.27;;;;;;;;;;4404126;32;20349;-59
2022/05/03 05:28:13;;;;;;;7.73;5.87;;;;;;;;;;4406192;32;20663;-59
2022/05/03 05:30:39;;;;;;;8.63;6.20;;;;;;;;;;4404890;32;20225;-57
2022/05/03 05:33:05;;;;;;;7.57;6.33;;;;;;;;;;4418794;32;20361;-56
2022/05/03 05:35:30;;;;;;;9.30;6.77;;;;;;;;;;4418770;32;20284;-57
2022/05/03 05:37:56;;;;;;;8.23;6.50;;;;;;;;;;4413651;32;20236;-57
2022/05/03 05:40:21;;;;;;;13.50;6.73;;;;;;;;;;4403594;32;20265;-57
2022/05/03 05:42:49;;;;;;;9.50;7.47;;;;;;;;;;4403572;32;20314;-58
2022/05/03 05:45:16;;;;;;;9.63;7.90;;;;;;;;;;4403270;32;20308;-57
2022/05/03 05:47:42;;;;;;;8.37;7.50;;;;;;;;;;4403577;32;20233;-57
2022/05/03 05:50:09;;;;;;;11.17;8.93;;;;;;;;;;4404476;32;20227;-56
2022/05/03 05:55:19;;;;;;;8.07;6.73;;;;;;;;;;4388923;32;20236;-57
2022/05/03 05:57:44;;;;;;;14.30;7.93;;;;;;;;;;4388694;32;20768;-57
2022/05/03 06:00:10;;;;;;;17.53;8.50;;;;;;;;;;4389383;32;20269;-57
2022/05/03 06:02:35;;;;;;;13.43;9.60;;;;;;;;;;4396507;32;20251;-57
2022/05/03 06:05:01;;;;;;;11.50;8.03;;;;;;;;;;4390377;32;20380;-57
2022/05/03 06:07:26;;;;;;;11.47;6.93;;;;;;;;;;4388371;32;20276;-57
2022/05/03 06:09:52;;;;;;;10.20;6.10;;;;;;;;;;4388815;32;20332;-57
2022/05/03 06:12:17;;;;;;;8.40;6.40;;;;;;;;;;4395262;32;20692;-57
2022/05/03 06:14:43;;;;;;;7.23;5.70;;;;;;;;;;4403664;32;20272;-57
2022/05/03 06:17:08;;;;;;;5.73;5.23;;;;;;;;;;4403793;32;20606;-57
2022/05/03 06:19:34;;;;;;;9.67;6.80;;;;;;;;;;4402607;32;20352;-58
2022/05/03 06:21:59;;;;;;;9.80;6.93;;;;;;;;;;4389535;32;20276;-57
2022/05/03 06:24:24;;;;;;;8.00;6.17;;;;;;;;;;4403592;32;20288;-57
2022/05/03 06:26:50;;;;;;;6.20;4.90;;;;;;;;;;4404038;32;20680;-59
2022/05/03 06:29:16;;;;;;;8.63;5.60;;;;;;;;;;4412486;32;20783;-56
2022/05/03 06:31:42;;;;;;;7.73;5.87;;;;;;;;;;4418485;32;20724;-57
2022/05/03 06:34:08;;;;;;;8.20;6.33;;;;;;;;;;4418968;32;20225;-57
2022/05/03 06:36:37;;;;;;;8.67;6.60;;;;;;;;;;4418955;32;20204;-57
2022/05/03 06:39:04;;;;;;;9.20;7.10;;;;;;;;;;4407009;32;20378;-58
2022/05/03 06:41:29;;;;;;;19.37;8.40;;;;;;;;;;4403470;32;20213;-58
2022/05/03 06:43:57;;;;;;;8.80;7.03;;;;;;;;;;4390199;32;20417;-58
2022/05/03 06:46:24;;;;;;;8.30;6.50;;;;;;;;;;4389570;32;20593;-58
2022/05/03 06:48:49;;;;;;;9.97;7.50;;;;;;;;;;4403283;32;20329;-58
2022/05/03 06:51:15;;;;;;;8.60;5.97;;;;;;;;;;4395915;32;20422;-58
2022/05/03 06:53:41;;;;;;;8.30;6.23;;;;;;;;;;4387774;32;20338;-57
2022/05/03 06:56:07;;;;;;;10.07;6.80;;;;;;;;;;4387437;32;20294;-57
2022/05/03 06:58:32;;;;;;;12.87;9.80;;;;;;;;;;4393130;32;20341;-57
2022/05/03 07:00:58;;;;;;;13.40;9.37;;;;;;;;;;4402300;32;20342;-58
2022/05/03 07:03:23;;;;;;;8.77;7.43;;;;;;;;;;4402227;32;20233;-58
2022/05/03 07:05:48;;;;;;;7.33;6.47;;;;;;;;;;4401968;32;20336;-58
2022/05/03 07:08:14;;;;;;;10.67;7.57;;;;;;;;;;4388843;32;20316;-59
2022/05/03 07:10:41;;;;;;;11.57;7.63;;;;;;;;;;4389420;32;20339;-59
2022/05/03 07:13:13;;;;;;;12.63;8.37;;;;;;;;;;4402852;32;20365;-58
2022/05/03 07:15:38;;;;;;;12.00;7.07;;;;;;;;;;4388872;32;20300;-58
2022/05/03 07:23:32;;;;;;;10.67;8.73;;;;;;;;;;4402262;32;20361;-58
2022/05/03 07:25:58;;;;;;;12.07;9.07;;;;;;;;;;4388742;32;20705;-57
2022/05/03 07:28:23;;;;;;;13.63;8.50;;;;;;;;;;4403206;32;20846;-59
2022/05/03 07:30:49;;;;;;;11.10;8.07;;;;;;;;;;4389455;32;20322;-58
2022/05/03 07:33:14;;;;;;;9.97;8.10;;;;;;;;;;4388803;32;20308;-58
2022/05/03 07:35:40;;;;;;;11.73;8.87;;;;;;;;;;4402522;32;20264;-58
2022/05/03 07:38:05;;;;;;;10.83;7.33;;;;;;;;;;4402258;32;20594;-58
2022/05/03 07:40:31;;;;;;;11.23;9.00;;;;;;;;;;4398284;32;20347;-59
2022/05/03 07:42:57;;;;;;;12.77;8.47;;;;;;;;;;4387332;32;20233;-58
2022/05/03 07:45:23;;;;;;;13.73;9.07;;;;;;;;;;4373559;32;20813;-59
2022/05/03 07:47:48;;;;;;;11.80;8.83;;;;;;;;;;4387123;32;20246;-58
2022/05/03 07:50:14;;;;;;;19.07;12.67;;;;;;;;;;4387715;32;20285;-58
2022/05/03 07:52:39;;;;;;;11.93;9.30;;;;;;;;;;4401965;32;20590;-58
2022/05/03 07:55:07;;;;;;;16.93;11.10;;;;;;;;;;4403176;32;20450;-57
2022/05/03 07:57:33;;;;;;;20.07;11.90;;;;;;;;;;4402226;32;20229;-58
2022/05/03 07:59:59;;;;;;;22.40;13.33;;;;;;;;;;4386211;32;20324;-58
2022/05/03 08:02:25;;;;;;;13.50;9.27;;;;;;;;;;4389669;32;20478;-58
2022/05/03 08:04:52;;;;;;;9.97;7.97;;;;;;;;;;4388841;32;20367;-58
2022/05/03 08:07:18;;;;;;;11.33;7.90;;;;;;;;;;4402338;32;20230;-59
2022/05/03 08:09:44;;;;;;;10.40;7.07;;;;;;;;;;4402607;32;20327;-58
2022/05/03 08:12:10;;;;;;;8.80;6.03;;;;;;;;;;4402694;32;20681;-58
2022/05/03 08:14:36;;;;;;;14.70;6.23;;;;;;;;;;4409432;32;20314;-59
2022/05/03 08:17:02;;;;;;;6.10;4.37;;;;;;;;;;4402721;32;20597;-58
2022/05/03 08:19:28;;;;;;;6.63;4.20;;;;;;;;;;4402631;32;20300;-58
2022/05/03 08:21:56;;;;;;;7.80;6.40;;;;;;;;;;4388742;32;20259;-58
2022/05/03 08:24:25;;;;;;;6.80;4.83;;;;;;;;;;4402341;32;20278;-58
2022/05/03 08:26:50;;;;;;;4.27;3.70;;;;;;;;;;4402610;32;20299;-58
2022/05/03 08:29:16;;;;;;;5.47;4.47;;;;;;;;;;4402455;32;20724;-58
2022/05/03 08:31:42;;;;;;;7.47;3.83;;;;;;;;;;4402312;32;20202;-57
2022/05/03 08:34:08;;;;;;;10.30;4.73;;;;;;;;;;4402645;32;20230;-58
2022/05/03 08:36:33;;;;;;;5.07;4.37;;;;;;;;;;4402255;32;20229;-58
2022/05/03 08:42:02;;;;;;;5.80;4.57;;;;;;;;;;4402405;32;20236;-58
2022/05/03 08:44:28;;;;;;;7.07;4.30;;;;;;;;;;4394222;32;20209;-58
2022/05/03 08:46:59;;;;;;;8.90;6.47;;;;;;;;;;4390147;32;20194;-58
2022/05/03 08:49:36;;;;;;;5.97;4.90;;;;;;;;;;4390262;32;20344;-58
2022/05/03 08:52:03;;;;;;;6.33;5.00;;;;;;;;;;4402180;32;20229;-58
2022/05/03 08:54:29;;;;;;;5.93;4.70;;;;;;;;;;4405155;32;20265;-58
2022/05/03 08:56:55;;;;;;;6.00;5.40;;;;;;;;;;4405001;32;20352;-57
2022/05/03 08:59:22;;;;;;;5.63;4.03;;;;;;;;;;4404705;32;20333;-58
2022/05/03 09:01:48;;;;;;;3.60;2.97;;;;;;;;;;4404895;32;20202;-57
2022/05/03 09:04:14;;;;;;;2.90;2.60;;;;;;;;;;4404404;32;20565;-57
2022/05/03 09:06:47;;;;;;;3.70;3.00;;;;;;;;;;4393929;32;20233;-58
2022/05/03 09:09:14;;;;;;;3.50;3.03;;;;;;;;;;4391571;32;20357;-58
2022/05/03 09:11:57;;;;;;;4.33;3.43;;;;;;;;;;4405004;32;20662;-57
2022/05/03 09:14:42;;;;;;;11.33;3.83;;;;;;;;;;4404537;32;20233;-58
2022/05/03 09:17:08;;;;;;;6.33;3.33;;;;;;;;;;4404766;32;20586;-58
2022/05/03 09:19:33;;;;;;;4.60;4.10;;;;;;;;;;4404481;32;20289;-60
2022/05/03 09:24:55;;;;;;;4.18;3.15;;;;;;;;;;4417936;32;20309;-58
2022/05/03 09:27:23;;;;;;;9.65;3.35;;;;;;;;;;4420173;32;20256;-58
2022/05/03 09:30:16;;;;;;;8.30;4.37;;;;;;;;;;4407241;32;20260;-58
2022/05/03 09:32:44;;;;;;;12.63;7.50;;;;;;;;;;4404474;32;20233;-57
2022/05/03 09:35:31;;;;;;;8.60;4.15;;;;;;;;;;4404621;32;20252;-58
2022/05/03 09:37:57;;;;;;;9.43;3.72;;;;;;;;;;4399463;32;20260;-58
2022/05/03 09:40:22;;;;;;;3.50;3.20;;;;;;;;;;4378664;32;20312;-59
2022/05/03 09:42:53;;;;;;;5.18;3.33;;;;;;;;;;4404388;32;20272;-58
2022/05/03 09:45:26;;;;;;;4.62;3.42;;;;;;;;;;4404330;32;20255;-58
2022/05/03 09:47:53;;;;;;;4.43;3.17;;;;;;;;;;4413775;32;20259;-57
2022/05/03 09:50:36;;;;;;;4.33;2.97;;;;;;;;;;4418359;32;20206;-57
2022/05/03 09:53:10;;;;;;;3.60;3.30;;;;;;;;;;4404346;32;20271;-57
2022/05/03 09:55:37;;;;;;;9.13;4.22;;;;;;;;;;4404080;32;20336;-58
2022/05/03 09:58:10;;;;;;;6.37;3.95;;;;;;;;;;4403930;32;20638;-56
2022/05/03 10:00:38;;;;;;;12.48;4.40;;;;;;;;;;4404452;32;20631;-58
2022/05/03 10:03:07;;;;;;;5.60;4.40;;;;;;;;;;4404115;32;20741;-58
2022/05/03 10:05:34;;;;;;;5.72;3.95;;;;;;;;;;4390048;32;20221;-58
2022/05/03 10:08:00;;;;;;;6.70;4.82;;;;;;;;;;4403979;32;20303;-58
2022/05/03 10:10:27;;;;;;;6.72;4.05;;;;;;;;;;4403722;32;20691;-58
2022/05/03 10:12:54;;;;;;;4.60;3.72;;;;;;;;;;4390097;32;20316;-58
2022/05/03 10:21:03;;;;;;;5.47;3.93;;;;;;;;;;4403608;32;20239;-58
2022/05/03 10:23:33;;;;;;;4.73;3.17;;;;;;;;;;4403587;32;20264;-58
2022/05/03 10:26:01;;;;;;;7.20;4.13;;;;;;;;;;4403917;32;20273;-58
2022/05/03 10:29:08;;;;;;;7.87;4.00;;;;;;;;;;4389767;32;20304;-57
2022/05/03 10:31:55;;;;;;;6.73;4.23;;;;;;;;;;4389807;32;20259;-58
2022/05/03 10:34:39;;;;;;;5.47;4.50;;;;;;;;;;4403815;32;20223;-58
2022/05/03 10:37:12;;;;;;;4.33;3.90;;;;;;;;;;4391835;32;20354;-57
2022/05/03 10:39:45;;;;;;;5.07;3.83;;;;;;;;;;4404021;32;20276;-58
2022/05/03 10:42:13;;;;;;;4.53;3.63;;;;;;;;;;4403079;32;20225;-59
2022/05/03 10:45:01;;;;;;;6.63;4.10;;;;;;;;;;4403932;32;20238;-57
2022/05/03 10:47:53;;;;;;;4.63;3.33;;;;;;;;;;4410796;32;20225;-58
2022/05/03 10:50:19;;;;;;;6.53;4.17;;;;;;;;;;4403762;32;20257;-57
2022/05/03 10:53:15;;;;;;;6.27;4.77;;;;;;;;;;4403493;32;20404;-58
2022/05/03 10:56:13;;;;;;;7.60;4.63;;;;;;;;;;4403745;32;20216;-58
2022/05/03 10:58:44;;;;;;;4.13;3.27;;;;;;;;;;4394692;32;20280;-58
2022/05/03 11:01:10;;;;;;;5.33;4.07;;;;;;;;;;4388323;32;20236;-59
2022/05/03 11:03:48;;;;;;;8.60;5.17;;;;;;;;;;4394726;32;20330;-58
2022/05/03 11:06:20;;;;;;;18.17;4.50;;;;;;;;;;4394867;32;20739;-58
2022/05/03 11:08:57;;;;;;;9.60;4.30;;;;;;;;;;4403021;32;20323;-58
2022/05/03 11:14:22;;;;;;;9.23;4.73;;;;;;;;;;4403780;32;20289;-58
2022/05/03 11:17:05;;;;;;;17.67;7.10;;;;;;;;;;4389817;32;20646;-58
2022/05/03 11:19:51;;;;;;;16.10;7.12;;;;;;;;;;4403368;32;20212;-59
2022/05/03 11:22:25;;;;;;;28.47;11.43;;;;;;;;;;4403128;32;20226;-59
2022/05/03 11:24:53;;;;;;;16.30;8.93;;;;;;;;;;4403562;32;20198;-59
2022/05/03 11:27:20;;;;;;;10.60;6.93;;;;;;;;;;4403364;32;20225;-57
2022/05/03 11:29:47;;;;;;;14.60;8.87;;;;;;;;;;4402392;32;20593;-57
2022/05/03 11:32:15;;;;;;;19.80;7.57;;;;;;;;;;4397552;32;20237;-57
2022/05/03 11:34:41;;;;;;;13.13;8.93;;;;;;;;;;4387172;32;20250;-58
2022/05/03 11:37:10;;;;;;;7.10;5.80;;;;;;;;;;4386165;32;20336;-58
2022/05/03 11:39:36;;;;;;;10.73;6.47;;;;;;;;;;4387871;32;20292;-58
2022/05/03 11:42:13;;;;;;;13.77;9.70;;;;;;;;;;4399585;32;20726;-58
2022/05/03 11:44:45;;;;;;;21.10;9.93;;;;;;;;;;4402763;32;20548;-58
2022/05/03 11:47:10;;;;;;;10.50;6.30;;;;;;;;;;4403238;32;20379;-58
2022/05/03 11:49:36;;;;;;;8.33;5.37;;;;;;;;;;4402608;32;20649;-59
2022/05/03 11:57:49;;;;;;;7.67;6.17;;;;;;;;;;4400447;32;20294;-58
2022/05/03 12:00:14;;;;;;;6.63;4.70;;;;;;;;;;4376560;32;20343;-59
2022/05/03 12:02:44;;;;;;;8.25;4.90;;;;;;;;;;4402910;32;20241;-59
2022/05/03 12:05:17;;;;;;;6.47;4.30;;;;;;;;;;4387462;32;20230;-59
2022/05/03 12:07:46;;;;;;;9.93;6.90;;;;;;;;;;4387752;32;20307;-59
2022/05/03 12:10:37;;;;;;;10.53;5.67;;;;;;;;;;4395391;32;20269;-58
2022/05/03 12:13:03;;;;;;;9.07;4.77;;;;;;;;;;4391010;32;20233;-57
2022/05/03 12:15:29;;;;;;;5.40;4.80;;;;;;;;;;4384753;32;20774;-58
2022/05/03 12:18:01;;;;;;;4.57;4.03;;;;;;;;;;4403770;32;20305;-58
2022/05/03 12:20:40;;;;;;;5.20;4.53;;;;;;;;;;4405693;32;20255;-58
2022/05/03 12:23:17;;;;;;;6.12;5.15;;;;;;;;;;4391630;32;20336;-58
2022/05/03 12:25:45;;;;;;;6.10;4.20;;;;;;;;;;4391727;32;20281;-58
2022/05/03 12:28:10;;;;;;;4.17;3.73;;;;;;;;;;4391548;32;20307;-59
2022/05/03 12:30:36;;;;;;;6.37;4.50;;;;;;;;;;4405552;32;20704;-58
2022/05/03 12:33:04;;;;;;;6.17;4.47;;;;;;;;;;4405286;32;20260;-57
2022/05/03 12:35:32;;;;;;;6.07;4.80;;;;;;;;;;4405215;32;20240;-59
2022/05/03 12:37:57;;;;;;;4.80;4.30;;;;;;;;;;4405446;32;20292;-57
2022/05/03 12:40:25;;;;;;;10.80;6.57;;;;;;;;;;4405404;32;20359;-58
2022/05/03 12:42:51;;;;;;;10.90;7.70;;;;;;;;;;4405362;32;20229;-57
2022/05/03 12:45:19;;;;;;;8.63;6.53;;;;;;;;;;4405288;32;20277;-57
2022/05/03 12:47:46;;;;;;;12.63;7.43;;;;;;;;;;4414187;32;20296;-57
2022/05/03 12:50:12;;;;;;;24.10;12.90;;;;;;;;;;4420456;32;20672;-58
2022/05/03 12:52:38;;;;;;;29.90;16.67;;;;;;;;;;4420004;32;20653;-58
2022/05/03 12:55:04;;;;;;;21.40;13.10;;;;;;;;;;4420289;32;20276;-58
2022/05/03 13:00:15;;;;;;;13.10;10.50;;;;;;;;;;4389727;32;20225;-58
2022/05/03 13:02:40;;;;;;;11.43;9.23;;;;;;;;;;4393712;32;20666;-58
2022/05/03 13:05:06;;;;;;;11.30;8.70;;;;;;;;;;4404851;32;20350;-58
2022/05/03 13:07:32;;;;;;;20.85;8.90;;;;;;;;;;4404817;32;20362;-57
2022/05/03 13:09:57;;;;;;;10.73;7.47;;;;;;;;;;4382396;32;20369;-58
2022/05/03 13:12:22;;;;;;;7.97;6.00;;;;;;;;;;4404801;32;20301;-58
2022/05/03 13:14:48;;;;;;;11.40;7.03;;;;;;;;;;4405058;32;20352;-58
2022/05/03 13:17:14;;;;;;;18.00;8.57;;;;;;;;;;4391046;32;20256;-58
2022/05/03 13:19:39;;;;;;;13.33;8.30;;;;;;;;;;4404758;32;20739;-57
2022/05/03 13:22:05;;;;;;;17.90;9.70;;;;;;;;;;4404796;32;20349;-58
2022/05/03 13:24:30;;;;;;;10.97;8.80;;;;;;;;;;4404592;32;20765;-59
2022/05/03 13:26:57;;;;;;;17.40;8.20;;;;;;;;;;4404583;32;20197;-58
2022/05/03 13:29:23;;;;;;;9.67;7.00;;;;;;;;;;4404329;32;20290;-57
2022/05/03 13:31:50;;;;;;;8.17;6.50;;;;;;;;;;4390631;32;20221;-56
2022/05/03 13:34:15;;;;;;;14.10;8.17;;;;;;;;;;4390856;32;20367;-58
2022/05/03 13:42:10;;;;;;;16.50;8.47;;;;;;;;;;4404508;32;20884;-58
2022/05/03 13:44:37;;;;;;;10.83;6.23;;;;;;;;;;4404312;32;20269;-58
2022/05/03 13:47:04;;;;;;;7.77;3.57;;;;;;;;;;4408649;32;20337;-58
2022/05/03 13:49:30;;;;;;;3.83;2.97;;;;;;;;;;4405501;32;20375;-59
2022/05/03 13:51:55;;;;;;;5.40;3.00;;;;;;;;;;4405237;32;20328;-58
2022/05/03 13:54:21;;;;;;;6.70;4.00;;;;;;;;;;4405724;32;20668;-65
2022/05/03 13:56:46;;;;;;;5.63;3.90;;;;;;;;;;4419869;32;20221;-58
2022/05/03 13:59:12;;;;;;;6.60;4.50;;;;;;;;;;4398391;32;20376;-57
2022/05/03 14:01:38;;;;;;;5.53;3.83;;;;;;;;;;4388952;32;20210;-58
2022/05/03 14:04:05;;;;;;;5.05;3.17;;;;;;;;;;4399322;32;20256;-58
2022/05/03 14:06:30;;;;;;;6.83;4.03;;;;;;;;;;4388510;32;20422;-58
2022/05/03 14:08:56;;;;;;;10.90;5.60;;;;;;;;;;4375128;32;20261;-59
2022/05/03 14:11:22;;;;;;;6.97;4.67;;;;;;;;;;4402788;32;20310;-58
2022/05/03 14:13:47;;;;;;;8.20;3.70;;;;;;;;;;4403978;32;20229;-59
2022/05/03 14:16:16;;;;;;;11.83;4.77;;;;;;;;;;4390105;32;20304;-58
2022/05/03 14:18:42;;;;;;;9.10;4.20;;;;;;;;;;4403579;32;20245;-57
2022/05/03 14:21:07;;;;;;;10.37;4.60;;;;;;;;;;4403405;32;20679;-58
2022/05/03 14:23:34;;;;;;;8.13;4.82;;;;;;;;;;4403604;32;20307;-58
2022/05/03 14:26:00;;;;;;;7.47;5.33;;;;;;;;;;4403914;32;20630;-58
2022/05/03 14:28:25;;;;;;;15.47;4.90;;;;;;;;;;4403449;32;20276;-58
2022/05/03 14:30:51;;;;;;;10.27;4.93;;;;;;;;;;4403848;32;20678;-58
2022/05/03 14:33:16;;;;;;;12.53;5.47;;;;;;;;;;4403751;32;20226;-58
2022/05/03 14:35:42;;;;;;;10.70;5.30;;;;;;;;;;4403248;32;20316;-57
2022/05/03 14:38:07;;;;;;;10.23;6.37;;;;;;;;;;4396981;32;20229;-58
2022/05/03 14:40:33;;;;;;;12.10;6.33;;;;;;;;;;4387947;32;20277;-58
2022/05/03 14:43:02;;;;;;;10.23;6.43;;;;;;;;;;4388534;32;20362;-58
2022/05/03 14:45:28;;;;;;;13.00;7.07;;;;;;;;;;4388280;32;20650;-58
2022/05/03 14:47:54;;;;;;;16.70;8.07;;;;;;;;;;4384254;32;20221;-57
2022/05/03 14:50:19;;;;;;;12.53;8.57;;;;;;;;;;4403270;32;20272;-57
2022/05/03 14:52:45;;;;;;;9.57;6.43;;;;;;;;;;4403313;32;20803;-58
2022/05/03 14:55:11;;;;;;;8.03;5.23;;;;;;;;;;4403599;32;20350;-58
2022/05/03 15:03:05;;;;;;;12.50;5.93;;;;;;;;;;4394466;32;20581;-58
2022/05/03 15:05:35;;;;;;;12.70;7.43;;;;;;;;;;4400807;32;20285;-60
2022/05/03 15:08:03;;;;;;;8.88;5.53;;;;;;;;;;4403397;32;20662;-57
2022/05/03 15:10:29;;;;;;;9.63;6.13;;;;;;;;;;4389183;32;20682;-58
2022/05/03 15:12:59;;;;;;;12.10;6.30;;;;;;;;;;4402897;32;20296;-58
2022/05/03 15:15:26;;;;;;;7.55;4.90;;;;;;;;;;4403258;32;20350;-58
2022/05/03 15:17:52;;;;;;;8.93;4.13;;;;;;;;;;4389407;32;20244;-59
2022/05/03 15:20:20;;;;;;;7.97;4.87;;;;;;;;;;4386938;32;20323;-59
2022/05/03 15:25:31;;;;;;;10.03;6.90;;;;;;;;;;4403614;32;20239;-58
2022/05/03 15:27:57;;;;;;;12.48;7.68;;;;;;;;;;4403116;32;20252;-58
2022/05/03 15:30:22;;;;;;;15.40;8.30;;;;;;;;;;4389117;32;20300;-60
2022/05/03 15:32:48;;;;;;;15.03;8.30;;;;;;;;;;4389039;32;20310;-58
2022/05/03 15:35:13;;;;;;;12.57;6.97;;;;;;;;;;4403030;32;20309;-61
2022/05/03 15:37:40;;;;;;;10.73;6.83;;;;;;;;;;4403225;32;20229;-58